Time;durP1;ratioP1;P1;durP2;ratioP2;P2;SDS_P1;SDS_P2;PMS_P1;PMS_P2;Temp;Humidity;BMP_temperature;BMP_pressure;BME280_temperature;BME280_humidity;BME280_pressure;Samples;Min_cycle;Max_cycle;Signal;HPM_P1;HPM_P2
2023/04/08 00:01:10;;;;;;;;;;;5.20;99.90;;;;;;5046034;28;19921;-68
2023/04/08 00:03:36;;;;;;;;;;;5.10;99.90;;;;;;5050072;28;20284;-68
2023/04/08 00:06:02;;;;;;;;;;;5.20;99.90;;;;;;5047819;28;19917;-68
2023/04/08 00:08:28;;;;;;;;;;;5.20;99.90;;;;;;5050054;28;20374;-68
2023/04/08 00:10:54;;;;;;;;;;;5.20;99.90;;;;;;5043947;28;19913;-69
2023/04/08 00:13:19;;;;;;;;;;;5.20;99.90;;;;;;5047927;28;19913;-69
2023/04/08 00:15:45;;;;;;;;;;;5.10;99.90;;;;;;5049776;28;19917;-69
2023/04/08 00:18:12;;;;;;;;;;;5.00;99.90;;;;;;5048232;28;19913;-68
2023/04/08 00:20:38;;;;;;;;;;;5.00;99.90;;;;;;5049637;28;19920;-69
2023/04/08 00:23:03;;;;;;;;;;;4.90;99.90;;;;;;5048232;28;19956;-69
2023/04/08 00:25:33;;;;;;;;;;;4.90;99.90;;;;;;5049590;28;20034;-69
2023/04/08 00:27:59;;;;;;;;;;;4.90;99.90;;;;;;5047269;28;21386;-69
2023/04/08 00:30:28;;;;;;;;;;;4.90;99.90;;;;;;5042631;28;19912;-69
2023/04/08 00:32:54;;;;;;;;;;;4.90;99.90;;;;;;5056075;28;20376;-69
2023/04/08 00:35:19;;;;;;;;;;;4.90;99.90;;;;;;5066778;28;19919;-69
2023/04/08 00:37:46;;;;;;;;;;;4.80;99.90;;;;;;5053305;28;20003;-69
2023/04/08 00:40:12;;;;;;;;;;;4.80;99.90;;;;;;5051487;28;19912;-70
2023/04/08 00:42:38;;;;;;;;;;;4.80;99.90;;;;;;5052747;28;19923;-69
2023/04/08 00:45:04;;;;;;;;;;;4.80;99.90;;;;;;5050802;28;19913;-69
2023/04/08 00:47:30;;;;;;;;;;;4.80;99.90;;;;;;5053710;28;19913;-69
2023/04/08 00:49:55;;;;;;;;;;;4.70;99.90;;;;;;5057482;28;19942;-68
2023/04/08 00:52:21;;;;;;;;;;;4.70;99.90;;;;;;5056923;28;20011;-68
2023/04/08 00:54:47;;;;;;;;;;;4.70;99.90;;;;;;5053134;28;19913;-68
2023/04/08 00:57:12;;;;;;;;;;;4.70;99.90;;;;;;5050796;28;19920;-68
2023/04/08 00:59:38;;;;;;;;;;;4.70;99.90;;;;;;5068475;28;19912;-69
2023/04/08 01:02:10;;;;;;;;;;;4.60;99.90;;;;;;5050792;28;19928;-69
2023/04/08 01:04:46;;;;;;;;;;;4.60;99.90;;;;;;5051693;28;19917;-69
2023/04/08 01:07:23;;;;;;;;;;;4.60;99.90;;;;;;5051046;28;19920;-69
2023/04/08 01:09:54;;;;;;;;;;;4.60;99.90;;;;;;5052621;28;19981;-68
2023/04/08 01:12:26;;;;;;;;;;;4.70;99.90;;;;;;5049467;28;19970;-68
2023/04/08 01:14:54;;;;;;;;;;;4.70;99.90;;;;;;5051953;28;20124;-68
2023/04/08 01:17:21;;;;;;;;;;;4.70;99.90;;;;;;5041777;28;19916;-69
2023/04/08 01:19:48;;;;;;;;;;;4.60;99.90;;;;;;5052570;28;19913;-69
2023/04/08 01:22:13;;;;;;;;;;;4.60;99.90;;;;;;5036068;28;19921;-69
2023/04/08 01:24:41;;;;;;;;;;;4.60;99.90;;;;;;5052286;28;20398;-69
2023/04/08 01:27:08;;;;;;;;;;;4.50;99.90;;;;;;5050332;28;19912;-69
2023/04/08 01:29:35;;;;;;;;;;;4.50;99.90;;;;;;5054226;28;20365;-69
2023/04/08 01:32:01;;;;;;;;;;;4.40;99.90;;;;;;5050424;28;19939;-69
2023/04/08 01:34:28;;;;;;;;;;;4.40;99.90;;;;;;5051195;28;20016;-69
2023/04/08 01:36:54;;;;;;;;;;;4.30;99.90;;;;;;5052383;28;19913;-69
2023/04/08 01:39:20;;;;;;;;;;;4.30;99.90;;;;;;5050524;28;19923;-69
2023/04/08 01:41:47;;;;;;;;;;;4.30;99.90;;;;;;5051640;28;19928;-70
2023/04/08 01:44:13;;;;;;;;;;;4.30;99.90;;;;;;5049614;28;19952;-69
2023/04/08 01:46:39;;;;;;;;;;;4.30;99.90;;;;;;5052326;28;20363;-69
2023/04/08 01:49:06;;;;;;;;;;;4.30;99.90;;;;;;5049952;28;19958;-69
2023/04/08 01:51:32;;;;;;;;;;;4.20;99.90;;;;;;5051583;28;20375;-68
2023/04/08 01:53:57;;;;;;;;;;;4.10;99.90;;;;;;5051723;28;19952;-69
2023/04/08 01:56:27;;;;;;;;;;;4.00;99.90;;;;;;5050084;28;20374;-69
2023/04/08 01:58:54;;;;;;;;;;;4.10;99.90;;;;;;5051520;28;19955;-70
2023/04/08 02:01:21;;;;;;;;;;;4.10;99.90;;;;;;5050149;28;20319;-69
2023/04/08 02:03:47;;;;;;;;;;;4.10;99.90;;;;;;5035777;28;20385;-70
2023/04/08 02:06:13;;;;;;;;;;;4.20;99.90;;;;;;5049599;28;20003;-69
2023/04/08 02:08:39;;;;;;;;;;;4.10;99.90;;;;;;5051332;28;20050;-68
2023/04/08 02:11:05;;;;;;;;;;;4.00;99.90;;;;;;5049258;28;19920;-68
2023/04/08 02:13:31;;;;;;;;;;;4.00;99.90;;;;;;5049467;28;20011;-69
2023/04/08 02:16:03;;;;;;;;;;;3.90;99.90;;;;;;5051574;28;19913;-70
2023/04/08 02:18:29;;;;;;;;;;;4.00;99.90;;;;;;5051229;28;19913;-69
2023/04/08 02:21:13;;;;;;;;;;;3.90;99.90;;;;;;5051602;28;19932;-69
2023/04/08 02:23:40;;;;;;;;;;;3.90;99.90;;;;;;5051334;28;19924;-70
2023/04/08 02:26:13;;;;;;;;;;;3.90;99.90;;;;;;5048708;28;19924;-69
2023/04/08 02:28:39;;;;;;;;;;;3.90;99.90;;;;;;5051303;28;19947;-69
2023/04/08 02:31:07;;;;;;;;;;;3.80;99.90;;;;;;5051681;28;20382;-68
2023/04/08 02:33:34;;;;;;;;;;;3.70;99.90;;;;;;5037736;28;19921;-70
2023/04/08 02:36:00;;;;;;;;;;;3.70;99.90;;;;;;5036197;28;19913;-68
2023/04/08 02:38:28;;;;;;;;;;;3.60;99.90;;;;;;5039962;28;19920;-69
2023/04/08 02:40:54;;;;;;;;;;;3.50;99.90;;;;;;5034138;28;20373;-69
2023/04/08 02:43:20;;;;;;;;;;;3.40;99.90;;;;;;5030089;28;19928;-69
2023/04/08 02:45:45;;;;;;;;;;;3.40;99.90;;;;;;5036810;28;20377;-69
2023/04/08 02:48:11;;;;;;;;;;;3.40;99.90;;;;;;5038673;28;19920;-69
2023/04/08 02:50:37;;;;;;;;;;;3.30;99.90;;;;;;5040106;28;19956;-69
2023/04/08 02:53:03;;;;;;;;;;;3.30;99.90;;;;;;5030132;28;19960;-68
2023/04/08 02:55:28;;;;;;;;;;;3.30;99.90;;;;;;5037428;28;19913;-68
2023/04/08 02:57:54;;;;;;;;;;;3.40;99.90;;;;;;5032503;28;19920;-69
2023/04/08 03:00:19;;;;;;;;;;;3.30;99.90;;;;;;5033834;28;20011;-69
2023/04/08 03:02:45;;;;;;;;;;;3.30;99.90;;;;;;5038546;28;19916;-69
2023/04/08 03:05:11;;;;;;;;;;;3.30;99.90;;;;;;5032799;28;19920;-68
2023/04/08 03:07:36;;;;;;;;;;;3.30;99.90;;;;;;5041832;28;19923;-69
2023/04/08 03:10:02;;;;;;;;;;;3.20;99.90;;;;;;5032625;28;19913;-68
2023/04/08 03:12:28;;;;;;;;;;;3.10;99.90;;;;;;5028654;28;19913;-69
2023/04/08 03:14:54;;;;;;;;;;;3.10;99.90;;;;;;5033063;28;20410;-68
2023/04/08 03:17:27;;;;;;;;;;;3.10;99.90;;;;;;5111905;27;19915;-69
2023/04/08 03:19:52;;;;;;;;;;;3.10;99.90;;;;;;5121196;28;20282;-69
2023/04/08 03:22:18;;;;;;;;;;;3.10;99.90;;;;;;5108779;28;19916;-70
2023/04/08 03:24:44;;;;;;;;;;;3.10;99.90;;;;;;5111401;28;19918;-69
2023/04/08 03:27:11;;;;;;;;;;;3.00;99.90;;;;;;5111828;28;19912;-69
2023/04/08 03:29:36;;;;;;;;;;;2.90;99.90;;;;;;5112249;28;20338;-69
2023/04/08 03:32:02;;;;;;;;;;;2.70;99.90;;;;;;5111242;28;20399;-68
2023/04/08 03:34:28;;;;;;;;;;;2.60;99.90;;;;;;5108545;28;19935;-68
2023/04/08 03:36:53;;;;;;;;;;;2.60;99.90;;;;;;5117199;28;19920;-69
2023/04/08 03:39:19;;;;;;;;;;;2.60;99.90;;;;;;5120661;28;19916;-69
2023/04/08 03:41:44;;;;;;;;;;;2.60;99.90;;;;;;5102735;28;19954;-68
2023/04/08 03:44:10;;;;;;;;;;;2.60;99.90;;;;;;5107985;28;19999;-69
2023/04/08 03:46:36;;;;;;;;;;;2.60;99.90;;;;;;5115566;28;19919;-69
2023/04/08 03:49:01;;;;;;;;;;;2.60;99.90;;;;;;5154868;27;19912;-69
2023/04/08 03:51:30;;;;;;;;;;;2.60;99.90;;;;;;5112557;28;20408;-69
2023/04/08 03:53:56;;;;;;;;;;;2.60;99.90;;;;;;5110828;28;19919;-68
2023/04/08 03:56:21;;;;;;;;;;;2.60;99.90;;;;;;5108642;28;19920;-71
2023/04/08 03:58:47;;;;;;;;;;;2.60;99.90;;;;;;5111600;28;19943;-69
2023/04/08 04:01:13;;;;;;;;;;;2.70;99.90;;;;;;5114802;28;19912;-69
2023/04/08 04:03:38;;;;;;;;;;;2.90;99.90;;;;;;5112029;28;19912;-68
2023/04/08 04:06:04;;;;;;;;;;;2.90;99.90;;;;;;5112011;28;19915;-69
2023/04/08 04:08:30;;;;;;;;;;;2.80;99.90;;;;;;5113250;28;19912;-68
2023/04/08 04:10:57;;;;;;;;;;;2.70;99.90;;;;;;5112236;28;20010;-68
2023/04/08 04:13:23;;;;;;;;;;;2.60;99.90;;;;;;5117529;28;19911;-68
2023/04/08 04:15:48;;;;;;;;;;;2.60;99.90;;;;;;5110250;28;19936;-68
2023/04/08 04:18:14;;;;;;;;;;;2.50;99.90;;;;;;5117436;28;19919;-70
2023/04/08 04:20:43;;;;;;;;;;;2.60;99.90;;;;;;5109820;28;19956;-69
2023/04/08 04:23:08;;;;;;;;;;;2.70;99.90;;;;;;5111172;28;19923;-69
2023/04/08 04:25:34;;;;;;;;;;;2.70;99.90;;;;;;5103312;28;19912;-70
2023/04/08 04:28:01;;;;;;;;;;;2.80;99.90;;;;;;5104504;28;19951;-71
2023/04/08 04:30:27;;;;;;;;;;;2.90;99.90;;;;;;5100271;28;19916;-69
2023/04/08 04:32:53;;;;;;;;;;;2.90;99.90;;;;;;5105434;28;20375;-68
2023/04/08 04:35:18;;;;;;;;;;;2.90;99.90;;;;;;5100755;28;20412;-68
2023/04/08 04:37:44;;;;;;;;;;;2.80;99.90;;;;;;5102317;28;19918;-69
2023/04/08 04:40:10;;;;;;;;;;;2.80;99.90;;;;;;5102081;28;20360;-70
2023/04/08 04:42:36;;;;;;;;;;;2.70;99.90;;;;;;5089049;28;19912;-69
2023/04/08 04:45:01;;;;;;;;;;;2.70;99.90;;;;;;5102404;28;19920;-69
2023/04/08 04:47:27;;;;;;;;;;;2.60;99.90;;;;;;5105848;28;19923;-68
2023/04/08 04:49:53;;;;;;;;;;;2.60;99.90;;;;;;5094528;28;19916;-69
2023/04/08 04:52:18;;;;;;;;;;;2.60;99.90;;;;;;5098501;28;19916;-69
2023/04/08 04:54:44;;;;;;;;;;;2.60;99.90;;;;;;5092433;28;19912;-69
2023/04/08 04:57:10;;;;;;;;;;;2.60;99.90;;;;;;5093463;28;19942;-69
2023/04/08 04:59:35;;;;;;;;;;;2.60;99.90;;;;;;5095629;28;19947;-70
2023/04/08 05:02:01;;;;;;;;;;;2.60;99.90;;;;;;5095937;28;19912;-70
2023/04/08 05:04:27;;;;;;;;;;;2.70;99.90;;;;;;5095037;28;19920;-70
2023/04/08 05:06:52;;;;;;;;;;;2.70;99.90;;;;;;5099541;28;19999;-69
2023/04/08 05:09:19;;;;;;;;;;;2.60;99.90;;;;;;5099683;28;19916;-70
2023/04/08 05:11:44;;;;;;;;;;;2.50;99.90;;;;;;5102610;28;19912;-69
2023/04/08 05:14:10;;;;;;;;;;;2.40;99.90;;;;;;5101319;28;20009;-68
2023/04/08 05:16:36;;;;;;;;;;;2.40;99.90;;;;;;5098911;28;19919;-69
2023/04/08 05:19:01;;;;;;;;;;;2.40;99.90;;;;;;5103138;28;19919;-69
2023/04/08 05:21:27;;;;;;;;;;;2.40;99.90;;;;;;5103391;28;19912;-69
2023/04/08 05:23:53;;;;;;;;;;;2.40;99.90;;;;;;5100919;28;19915;-69
2023/04/08 05:26:20;;;;;;;;;;;2.50;99.90;;;;;;5101537;28;19953;-69
2023/04/08 05:28:46;;;;;;;;;;;2.50;99.90;;;;;;5104992;28;19928;-68
2023/04/08 05:31:15;;;;;;;;;;;2.50;99.90;;;;;;5098426;28;19920;-69
2023/04/08 05:33:40;;;;;;;;;;;2.50;99.90;;;;;;5104960;28;19912;-70
2023/04/08 05:36:06;;;;;;;;;;;2.60;99.90;;;;;;5100860;28;19926;-70
2023/04/08 05:38:32;;;;;;;;;;;2.70;99.90;;;;;;5099918;28;19942;-69
2023/04/08 05:40:58;;;;;;;;;;;2.70;99.90;;;;;;5099360;28;19919;-69
2023/04/08 05:43:23;;;;;;;;;;;2.80;99.90;;;;;;5098196;28;19908;-70
2023/04/08 05:45:49;;;;;;;;;;;2.80;99.90;;;;;;5099953;28;19920;-69
2023/04/08 05:48:15;;;;;;;;;;;2.90;99.90;;;;;;5100884;28;19919;-70
2023/04/08 05:50:41;;;;;;;;;;;2.90;99.90;;;;;;5102701;28;19911;-70
2023/04/08 05:53:06;;;;;;;;;;;2.90;99.90;;;;;;5097825;28;19934;-70
2023/04/08 05:55:32;;;;;;;;;;;2.80;99.90;;;;;;5102871;28;19938;-69
2023/04/08 05:57:57;;;;;;;;;;;2.70;99.90;;;;;;5087080;28;19912;-70
2023/04/08 06:00:23;;;;;;;;;;;2.80;99.90;;;;;;5094562;28;19916;-68
2023/04/08 06:02:49;;;;;;;;;;;2.80;99.90;;;;;;5097863;28;19911;-68
2023/04/08 06:05:15;;;;;;;;;;;2.90;99.90;;;;;;5092407;28;20402;-70
2023/04/08 06:07:40;;;;;;;;;;;2.90;99.90;;;;;;5086915;28;19958;-70
2023/04/08 06:10:06;;;;;;;;;;;3.10;99.90;;;;;;5088413;28;20291;-71
2023/04/08 06:12:34;;;;;;;;;;;3.10;99.90;;;;;;5089908;28;19912;-69
2023/04/08 06:15:00;;;;;;;;;;;3.10;99.90;;;;;;5090972;28;20261;-69
2023/04/08 06:17:26;;;;;;;;;;;3.20;99.90;;;;;;5108552;28;19920;-69
2023/04/08 06:19:52;;;;;;;;;;;3.30;99.90;;;;;;5100693;28;19958;-69
2023/04/08 06:22:18;;;;;;;;;;;3.40;99.90;;;;;;5092685;28;19912;-69
2023/04/08 06:24:45;;;;;;;;;;;3.40;99.90;;;;;;5093595;28;19912;-68
2023/04/08 06:27:11;;;;;;;;;;;3.40;99.90;;;;;;5106438;28;19919;-68
2023/04/08 06:29:37;;;;;;;;;;;3.30;99.90;;;;;;5105724;28;19916;-68
2023/04/08 06:32:03;;;;;;;;;;;3.30;99.90;;;;;;5098754;28;19912;-70
2023/04/08 06:34:29;;;;;;;;;;;3.30;99.90;;;;;;5105633;28;19976;-70
2023/04/08 06:36:56;;;;;;;;;;;3.40;99.90;;;;;;5109488;28;19919;-72
2023/04/08 06:39:22;;;;;;;;;;;3.40;99.90;;;;;;5093554;28;19926;-69
2023/04/08 06:41:48;;;;;;;;;;;3.40;99.90;;;;;;5106515;27;19912;-69
2023/04/08 06:44:16;;;;;;;;;;;3.50;99.90;;;;;;5083231;28;20014;-69
2023/04/08 06:46:42;;;;;;;;;;;3.50;99.90;;;;;;5077710;28;19917;-69
2023/04/08 06:49:08;;;;;;;;;;;3.50;99.90;;;;;;5088997;28;20420;-69
2023/04/08 06:51:34;;;;;;;;;;;3.50;99.90;;;;;;5093088;28;19921;-69
2023/04/08 06:54:00;;;;;;;;;;;3.60;99.90;;;;;;5099534;28;19938;-69
2023/04/08 06:56:26;;;;;;;;;;;3.60;99.90;;;;;;5084928;28;19935;-68
2023/04/08 06:58:55;;;;;;;;;;;3.70;99.90;;;;;;5095704;28;20201;-69
2023/04/08 07:01:20;;;;;;;;;;;3.70;99.90;;;;;;5093772;28;20120;-69
2023/04/08 07:03:46;;;;;;;;;;;3.80;99.90;;;;;;5098465;28;19998;-68
2023/04/08 07:06:11;;;;;;;;;;;3.80;99.90;;;;;;5091177;28;19998;-68
2023/04/08 07:08:37;;;;;;;;;;;4.00;99.90;;;;;;5095691;28;19981;-70
2023/04/08 07:11:04;;;;;;;;;;;4.10;99.90;;;;;;5096449;28;19919;-68
2023/04/08 07:13:30;;;;;;;;;;;4.20;99.90;;;;;;5091021;28;19916;-69
2023/04/08 07:15:55;;;;;;;;;;;4.30;99.90;;;;;;5094688;28;20057;-68
2023/04/08 07:18:22;;;;;;;;;;;4.40;99.90;;;;;;5097164;28;19922;-70
2023/04/08 07:20:54;;;;;;;;;;;4.50;99.90;;;;;;5083693;28;19927;-69
2023/04/08 07:23:20;;;;;;;;;;;4.60;99.90;;;;;;5101622;28;20433;-69
2023/04/08 07:25:46;;;;;;;;;;;4.70;99.90;;;;;;5103564;28;19923;-69
2023/04/08 07:28:12;;;;;;;;;;;4.80;99.90;;;;;;5097166;28;19920;-69
2023/04/08 07:30:38;;;;;;;;;;;4.90;99.90;;;;;;5100359;28;19916;-70
2023/04/08 07:33:03;;;;;;;;;;;4.90;99.90;;;;;;5090017;28;20329;-69
2023/04/08 07:35:30;;;;;;;;;;;5.00;99.90;;;;;;5102930;28;20001;-69
2023/04/08 07:37:56;;;;;;;;;;;5.00;99.90;;;;;;5083591;28;19919;-69
2023/04/08 07:40:22;;;;;;;;;;;5.00;99.90;;;;;;5093445;28;19920;-68
2023/04/08 07:42:48;;;;;;;;;;;5.10;99.90;;;;;;5093049;28;19911;-68
2023/04/08 07:45:14;;;;;;;;;;;5.10;99.90;;;;;;5098756;28;19913;-70
2023/04/08 07:47:40;;;;;;;;;;;5.20;99.90;;;;;;5097731;28;19955;-69
2023/04/08 07:50:06;;;;;;;;;;;5.30;99.90;;;;;;5090507;28;19951;-69
2023/04/08 07:52:31;;;;;;;;;;;5.40;99.90;;;;;;5098987;28;20374;-69
2023/04/08 07:54:57;;;;;;;;;;;5.50;99.90;;;;;;5092899;28;20411;-69
2023/04/08 07:57:23;;;;;;;;;;;5.60;99.90;;;;;;5100473;28;20371;-69
2023/04/08 07:59:48;;;;;;;;;;;5.70;99.90;;;;;;5103608;28;19916;-69
2023/04/08 08:02:14;;;;;;;;;;;5.80;99.90;;;;;;5095563;28;19916;-69
2023/04/08 08:04:40;;;;;;;;;;;5.80;99.90;;;;;;5095099;28;19919;-68
2023/04/08 08:07:06;;;;;;;;;;;6.00;99.90;;;;;;5099469;28;19912;-69
2023/04/08 08:09:32;;;;;;;;;;;6.10;99.90;;;;;;5097768;28;19916;-69
2023/04/08 08:11:58;;;;;;;;;;;6.20;99.90;;;;;;5098478;28;19955;-69
2023/04/08 08:14:25;;;;;;;;;;;6.30;99.90;;;;;;5102583;28;19970;-68
2023/04/08 08:16:52;;;;;;;;;;;6.40;99.90;;;;;;5098434;28;19923;-68
2023/04/08 08:19:19;;;;;;;;;;;6.60;99.90;;;;;;5104312;28;19965;-69
2023/04/08 08:21:45;;;;;;;;;;;6.70;99.90;;;;;;5106889;28;20014;-69
2023/04/08 08:24:10;;;;;;;;;;;6.90;99.90;;;;;;5091237;28;19998;-68
2023/04/08 08:26:36;;;;;;;;;;;7.10;99.90;;;;;;5106476;28;19916;-69
2023/04/08 08:29:02;;;;;;;;;;;7.20;99.90;;;;;;5094867;28;20355;-69
2023/04/08 08:31:27;;;;;;;;;;;7.40;99.90;;;;;;5097526;28;19957;-69
2023/04/08 08:33:53;;;;;;;;;;;7.60;99.90;;;;;;5096882;28;19915;-68
2023/04/08 08:36:18;;;;;;;;;;;7.80;99.90;;;;;;5097684;28;19927;-68
2023/04/08 08:38:44;;;;;;;;;;;7.90;99.90;;;;;;5099485;28;19912;-69
2023/04/08 08:41:10;;;;;;;;;;;8.10;99.90;;;;;;5100566;28;19970;-68
2023/04/08 08:43:39;;;;;;;;;;;8.20;99.90;;;;;;5091964;28;19912;-69
2023/04/08 08:46:09;;;;;;;;;;;8.40;99.90;;;;;;5094545;28;19912;-68
2023/04/08 08:48:37;;;;;;;;;;;8.60;99.90;;;;;;5095935;28;19911;-68
2023/04/08 08:51:09;;;;;;;;;;;8.70;99.90;;;;;;5096071;28;19912;-69
2023/04/08 08:53:35;;;;;;;;;;;8.90;99.90;;;;;;5101032;28;19998;-69
2023/04/08 08:56:01;;;;;;;;;;;9.10;99.90;;;;;;5102679;28;20164;-67
2023/04/08 08:58:26;;;;;;;;;;;9.30;99.90;;;;;;5098801;28;20283;-69
2023/04/08 09:00:52;;;;;;;;;;;9.40;99.90;;;;;;5102061;28;19934;-69
2023/04/08 09:03:18;;;;;;;;;;;9.60;99.90;;;;;;5103629;28;20338;-69
2023/04/08 09:05:48;;;;;;;;;;;9.80;99.90;;;;;;5104617;28;19919;-68
2023/04/08 09:08:30;;;;;;;;;;;10.00;99.90;;;;;;5103303;28;19920;-67
2023/04/08 09:11:10;;;;;;;;;;;10.20;99.90;;;;;;5090419;28;20324;-68
2023/04/08 09:13:36;;;;;;;;;;;10.60;99.90;;;;;;5093064;28;19916;-68
2023/04/08 09:16:03;;;;;;;;;;;11.10;99.90;;;;;;5102708;28;19952;-67
2023/04/08 09:18:30;;;;;;;;;;;11.40;99.90;;;;;;5096615;28;19966;-68
2023/04/08 09:20:55;;;;;;;;;;;11.70;99.90;;;;;;5096633;28;19923;-69
2023/04/08 09:23:21;;;;;;;;;;;11.90;99.90;;;;;;5085913;28;20393;-69
2023/04/08 09:25:47;;;;;;;;;;;12.10;99.90;;;;;;5103225;28;19919;-68
2023/04/08 09:28:19;;;;;;;;;;;12.30;99.90;;;;;;5099402;28;20003;-68
2023/04/08 09:30:45;;;;;;;;;;;12.20;99.90;;;;;;5104711;28;20000;-69
2023/04/08 09:33:11;;;;;;;;;;;12.40;99.90;;;;;;5094711;28;19969;-69
2023/04/08 09:35:37;;;;;;;;;;;12.40;99.90;;;;;;5102030;28;19920;-66
2023/04/08 09:38:03;;;;;;;;;;;12.40;99.90;;;;;;5092359;28;19919;-67
2023/04/08 09:40:31;;;;;;;;;;;12.50;99.90;;;;;;5096689;28;19912;-67
2023/04/08 09:42:58;;;;;;;;;;;12.60;99.90;;;;;;5102297;28;19908;-68
2023/04/08 09:45:24;;;;;;;;;;;12.30;99.90;;;;;;5099778;28;20379;-68
2023/04/08 09:47:59;;;;;;;;;;;12.20;99.90;;;;;;5094704;28;20418;-68
2023/04/08 09:50:31;;;;;;;;;;;11.90;99.90;;;;;;5093740;28;20006;-67
2023/04/08 09:53:07;;;;;;;;;;;11.90;99.90;;;;;;5102507;28;20267;-68
2023/04/08 09:55:35;;;;;;;;;;;11.80;99.90;;;;;;5098025;28;20440;-68
2023/04/08 09:58:02;;;;;;;;;;;11.80;99.90;;;;;;5096612;28;19935;-68
2023/04/08 10:00:37;;;;;;;;;;;11.80;99.90;;;;;;5096299;28;20282;-68
2023/04/08 10:03:06;;;;;;;;;;;11.90;99.90;;;;;;5092736;28;19916;-67
2023/04/08 10:05:35;;;;;;;;;;;11.90;99.90;;;;;;5096194;28;20008;-69
2023/04/08 10:08:01;;;;;;;;;;;12.00;99.90;;;;;;5093364;28;19911;-68
2023/04/08 10:10:26;;;;;;;;;;;12.20;99.90;;;;;;5095553;28;19965;-67
2023/04/08 10:12:52;;;;;;;;;;;12.50;99.90;;;;;;5096054;28;19912;-69
2023/04/08 10:15:20;;;;;;;;;;;12.90;99.90;;;;;;5098803;28;19995;-68
2023/04/08 10:17:46;;;;;;;;;;;13.30;99.90;;;;;;5097766;28;19934;-68
2023/04/08 10:20:38;;;;;;;;;;;13.60;99.90;;;;;;5098526;28;19920;-68
2023/04/08 10:23:08;;;;;;;;;;;13.60;99.90;;;;;;5097832;27;19912;-67
2023/04/08 10:25:37;;;;;;;;;;;13.50;99.90;;;;;;5101527;28;19912;-68
2023/04/08 10:28:18;;;;;;;;;;;13.60;99.90;;;;;;5092676;28;19912;-69
2023/04/08 10:30:46;;;;;;;;;;;13.60;99.90;;;;;;5101267;28;19916;-69
2023/04/08 10:33:14;;;;;;;;;;;13.50;99.90;;;;;;5096853;28;19912;-68
2023/04/08 10:35:46;;;;;;;;;;;13.50;99.90;;;;;;5101205;28;19919;-68
2023/04/08 10:38:12;;;;;;;;;;;13.30;99.90;;;;;;5089165;28;19916;-69
2023/04/08 10:40:40;;;;;;;;;;;13.30;99.90;;;;;;5092040;28;20999;-69
2023/04/08 10:43:06;;;;;;;;;;;13.20;99.90;;;;;;5086526;28;20302;-69
2023/04/08 10:45:32;;;;;;;;;;;13.30;99.90;;;;;;5099825;28;19927;-68
2023/04/08 10:48:10;;;;;;;;;;;13.40;99.90;;;;;;5091475;28;20000;-68
2023/04/08 10:50:36;;;;;;;;;;;13.50;99.90;;;;;;5085449;28;19915;-68
2023/04/08 10:53:01;;;;;;;;;;;13.60;99.90;;;;;;5097929;28;20003;-63
2023/04/08 10:55:27;;;;;;;;;;;13.80;99.90;;;;;;5099731;28;20359;-68
2023/04/08 10:58:04;;;;;;;;;;;14.10;99.90;;;;;;5084518;28;20002;-68
2023/04/08 11:00:34;;;;;;;;;;;14.40;99.90;;;;;;5078203;28;19919;-68
2023/04/08 11:03:00;;;;;;;;;;;14.60;99.90;;;;;;5090741;28;19923;-69
2023/04/08 11:05:26;;;;;;;;;;;14.70;99.90;;;;;;5090555;28;19916;-69
2023/04/08 11:07:52;;;;;;;;;;;14.90;99.90;;;;;;5093968;28;19912;-69
2023/04/08 11:10:18;;;;;;;;;;;14.90;99.90;;;;;;5092620;28;20376;-68
2023/04/08 11:12:44;;;;;;;;;;;15.10;99.90;;;;;;5088873;28;20334;-69
2023/04/08 11:15:10;;;;;;;;;;;15.40;99.90;;;;;;5096450;28;19957;-69
2023/04/08 11:17:39;;;;;;;;;;;15.70;99.90;;;;;;5095758;28;20329;-68
2023/04/08 11:20:05;;;;;;;;;;;16.20;99.90;;;;;;5096927;28;19912;-68
2023/04/08 11:22:33;;;;;;;;;;;16.50;99.90;;;;;;5092488;28;19912;-69
2023/04/08 11:24:59;;;;;;;;;;;16.60;99.90;;;;;;5092639;28;20000;-67
2023/04/08 11:27:25;;;;;;;;;;;16.60;99.90;;;;;;5089005;28;19916;-68
2023/04/08 11:29:52;;;;;;;;;;;16.30;99.90;;;;;;5089782;28;19913;-68
2023/04/08 11:32:18;;;;;;;;;;;15.70;99.90;;;;;;5092303;28;19912;-67
2023/04/08 11:34:46;;;;;;;;;;;15.30;99.90;;;;;;5089398;28;19912;-69
2023/04/08 11:37:12;;;;;;;;;;;15.00;99.90;;;;;;5096866;28;20379;-68
2023/04/08 11:39:44;;;;;;;;;;;14.90;99.90;;;;;;5098950;28;19912;-68
2023/04/08 11:42:29;;;;;;;;;;;15.40;99.90;;;;;;5097629;28;20435;-68
2023/04/08 11:44:55;;;;;;;;;;;15.60;99.90;;;;;;5097249;28;19912;-69
2023/04/08 11:47:20;;;;;;;;;;;15.60;99.90;;;;;;5094913;28;19912;-68
2023/04/08 11:49:46;;;;;;;;;;;15.20;99.90;;;;;;5101152;28;19919;-68
2023/04/08 11:52:13;;;;;;;;;;;15.50;99.90;;;;;;5095654;28;20312;-68
2023/04/08 11:54:42;;;;;;;;;;;16.00;99.90;;;;;;5102035;28;19919;-68
2023/04/08 11:57:11;;;;;;;;;;;16.80;99.90;;;;;;5093925;28;19920;-68
2023/04/08 11:59:36;;;;;;;;;;;16.40;99.90;;;;;;5083178;28;19970;-68
2023/04/08 12:02:02;;;;;;;;;;;16.10;99.90;;;;;;5082214;28;20399;-68
2023/04/08 12:04:28;;;;;;;;;;;15.70;99.90;;;;;;5086518;28;20003;-69
2023/04/08 12:06:54;;;;;;;;;;;15.30;99.90;;;;;;5094685;28;19955;-68
2023/04/08 12:09:21;;;;;;;;;;;15.70;99.90;;;;;;5100546;28;19958;-69
2023/04/08 12:11:46;;;;;;;;;;;16.50;99.90;;;;;;5095385;28;19919;-68
2023/04/08 12:14:15;;;;;;;;;;;16.00;99.90;;;;;;5083316;28;19913;-67
2023/04/08 12:16:41;;;;;;;;;;;15.70;99.90;;;;;;5086344;28;19920;-68
2023/04/08 12:19:07;;;;;;;;;;;15.00;99.90;;;;;;5095875;28;19920;-70
2023/04/08 12:21:33;;;;;;;;;;;14.70;99.90;;;;;;5098990;28;19973;-69
2023/04/08 12:23:59;;;;;;;;;;;14.70;99.90;;;;;;5106764;28;19912;-69
2023/04/08 12:26:25;;;;;;;;;;;14.70;99.90;;;;;;5100650;28;19912;-68
2023/04/08 12:28:51;;;;;;;;;;;14.70;99.90;;;;;;5108607;28;19911;-70
2023/04/08 12:31:17;;;;;;;;;;;14.90;99.90;;;;;;5100691;28;19912;-70
2023/04/08 12:33:42;;;;;;;;;;;14.90;99.90;;;;;;5107509;28;19912;-70
2023/04/08 12:36:08;;;;;;;;;;;14.90;99.90;;;;;;5103485;28;19941;-70
2023/04/08 12:38:33;;;;;;;;;;;14.90;99.90;;;;;;5098444;28;19947;-70
2023/04/08 12:40:59;;;;;;;;;;;14.90;99.90;;;;;;5106897;28;19969;-69
2023/04/08 12:43:25;;;;;;;;;;;14.90;99.90;;;;;;5093092;28;19919;-69
2023/04/08 12:45:50;;;;;;;;;;;14.60;99.90;;;;;;5105223;28;19927;-70
2023/04/08 12:48:16;;;;;;;;;;;14.70;99.90;;;;;;5092477;28;19941;-71
2023/04/08 12:50:42;;;;;;;;;;;14.80;99.90;;;;;;5107646;28;20303;-70
2023/04/08 12:53:07;;;;;;;;;;;15.00;99.90;;;;;;5099571;28;19935;-68
2023/04/08 12:55:33;;;;;;;;;;;15.60;99.90;;;;;;5096245;28;19919;-69
2023/04/08 12:57:59;;;;;;;;;;;16.20;99.90;;;;;;5087936;28;19942;-70
2023/04/08 13:00:25;;;;;;;;;;;16.60;99.90;;;;;;5096539;28;19912;-70
2023/04/08 13:02:51;;;;;;;;;;;16.80;99.90;;;;;;5095266;28;20066;-70
2023/04/08 13:05:17;;;;;;;;;;;17.40;99.90;;;;;;5095809;28;20003;-70
2023/04/08 13:07:42;;;;;;;;;;;17.90;99.90;;;;;;5096228;28;20003;-70
2023/04/08 13:10:08;;;;;;;;;;;18.20;99.90;;;;;;5095082;28;20002;-69
2023/04/08 13:12:33;;;;;;;;;;;17.80;99.90;;;;;;5093811;28;20383;-69
2023/04/08 13:15:00;;;;;;;;;;;17.30;99.90;;;;;;5106042;28;19916;-69
2023/04/08 13:17:26;;;;;;;;;;;16.60;99.90;;;;;;5096934;28;19927;-69
2023/04/08 13:19:52;;;;;;;;;;;16.20;99.90;;;;;;5097489;28;19912;-69
2023/04/08 13:22:18;;;;;;;;;;;15.80;99.90;;;;;;5101981;28;19912;-69
2023/04/08 13:24:44;;;;;;;;;;;16.00;99.90;;;;;;5104999;28;19919;-68
2023/04/08 13:27:09;;;;;;;;;;;15.90;99.90;;;;;;5098478;28;19972;-70
2023/04/08 13:29:35;;;;;;;;;;;17.00;99.90;;;;;;5103325;28;20359;-69
2023/04/08 13:32:01;;;;;;;;;;;18.00;99.90;;;;;;5097239;28;19978;-70
2023/04/08 13:34:27;;;;;;;;;;;18.40;99.90;;;;;;5102212;28;19919;-68
2023/04/08 13:36:52;;;;;;;;;;;18.60;99.90;;;;;;5101069;28;19920;-67
2023/04/08 13:39:19;;;;;;;;;;;18.70;99.90;;;;;;5096232;28;20319;-68
2023/04/08 13:41:45;;;;;;;;;;;19.40;99.90;;;;;;5100660;28;19912;-69
2023/04/08 13:44:14;;;;;;;;;;;19.60;98.90;;;;;;5095488;28;19920;-69
2023/04/08 13:46:41;;;;;;;;;;;19.40;98.60;;;;;;5101707;28;19916;-68
2023/04/08 13:49:08;;;;;;;;;;;19.10;99.70;;;;;;5092612;28;19919;-68
2023/04/08 13:51:34;;;;;;;;;;;19.20;98.20;;;;;;5091051;28;20007;-69
2023/04/08 13:54:00;;;;;;;;;;;18.80;98.70;;;;;;5087318;28;19916;-69
2023/04/08 13:56:26;;;;;;;;;;;17.70;99.90;;;;;;5091861;28;19923;-70
2023/04/08 13:58:52;;;;;;;;;;;17.00;99.90;;;;;;5084311;28;19916;-68
2023/04/08 14:01:18;;;;;;;;;;;16.70;99.90;;;;;;5095188;28;20280;-68
2023/04/08 14:03:44;;;;;;;;;;;16.30;99.90;;;;;;5077828;28;19917;-68
2023/04/08 14:06:10;;;;;;;;;;;16.20;99.90;;;;;;5099613;28;19916;-68
2023/04/08 14:08:36;;;;;;;;;;;16.50;99.90;;;;;;5093345;28;19930;-68
2023/04/08 14:11:01;;;;;;;;;;;16.60;99.90;;;;;;5103043;28;19916;-69
2023/04/08 14:13:27;;;;;;;;;;;17.20;99.90;;;;;;5107861;28;19912;-68
2023/04/08 14:15:55;;;;;;;;;;;18.50;99.90;;;;;;5105839;28;20256;-68
2023/04/08 14:18:20;;;;;;;;;;;19.50;99.90;;;;;;5096669;28;20328;-68
2023/04/08 14:20:46;;;;;;;;;;;20.20;96.80;;;;;;5093467;28;19958;-66
2023/04/08 14:23:15;;;;;;;;;;;20.50;93.70;;;;;;5097986;28;19916;-68